Adams, Oregon
Current Conditions -  °F | °C
As of 4:53 PM on Wednesday 22 Oct 2014 (Local Time) from KPDT Reporting Station
Overcast Overcast  
Wind Chill: 19°   Ceiling: 8000
Heat Index: 19°   Visibility: 10mi
Dew Point:   Wind: 14mph
Humidity: 39%   Direction: 190°S
Pressure: 29.74"   Gusts: NA
Location:  45.77°N, 118.56°W
Report Text: KPDT 222353Z 19012KT 10SM OVC080 19/05 A2974 RMK AO2 RAB21E49 SLP060 P0000 60008 T01940050 10194 20150 56021
Loading
Personal Weather Stations






























Interactive Weather Map
Tropical Storm Tracking
New forecast layout! Learn more

10-Day Weather Forecast

Advertisements
Track Severe Weather on mobile